createdAt,value
2023-04-17T00:02:01.759Z,18.13
2023-04-17T00:04:30.942Z,15.73
2023-04-17T00:07:05.788Z,20.40
2023-04-17T00:09:34.365Z,19.38
2023-04-17T00:12:02.962Z,18.20
2023-04-17T00:14:32.756Z,18.08
2023-04-17T00:17:01.065Z,16.27
2023-04-17T00:19:29.355Z,16.17
2023-04-17T00:21:57.785Z,20.10
2023-04-17T00:24:26.072Z,15.48
2023-04-17T00:26:54.453Z,18.15
2023-04-17T00:29:22.896Z,17.65
2023-04-17T00:31:52.744Z,21.08
2023-04-17T00:34:21.053Z,18.63
2023-04-17T00:36:49.424Z,20.52
2023-04-17T00:39:17.756Z,20.05
2023-04-17T00:41:46.055Z,21.52
2023-04-17T00:44:14.430Z,22.85
2023-04-17T00:46:42.897Z,21.50
2023-04-17T00:49:13.370Z,20.65
2023-04-17T00:51:41.989Z,19.25
2023-04-17T00:54:12.635Z,18.85
2023-04-17T00:56:42.445Z,20.92
2023-04-17T00:59:14.008Z,18.58
2023-04-17T01:01:42.795Z,22.13
2023-04-17T01:04:12.770Z,22.20
2023-04-17T01:06:41.969Z,20.15
2023-04-17T01:09:10.937Z,24.02
2023-04-17T01:11:39.581Z,20.85
2023-04-17T01:14:07.887Z,24.63
2023-04-17T01:16:40.278Z,27.38
2023-04-17T01:19:10.791Z,20.25
2023-04-17T01:21:41.247Z,23.02
2023-04-17T01:24:11.223Z,23.45
2023-04-17T01:26:42.127Z,21.95
2023-04-17T01:29:10.968Z,23.20
2023-04-17T01:31:39.726Z,23.48
2023-04-17T01:34:08.329Z,26.83
2023-04-17T01:36:37.001Z,26.15
2023-04-17T01:39:05.729Z,25.13
2023-04-17T01:41:36.706Z,25.10
2023-04-17T01:44:05.508Z,25.80
2023-04-17T01:46:34.179Z,24.00
2023-04-17T01:49:05.071Z,25.75
2023-04-17T01:51:33.632Z,23.50
2023-04-17T01:54:02.369Z,22.75
2023-04-17T01:56:31.037Z,22.85
2023-04-17T01:59:00.953Z,22.35
2023-04-17T02:01:29.685Z,22.23
2023-04-17T02:04:01.864Z,22.13
2023-04-17T02:06:32.061Z,26.20
2023-04-17T02:09:00.657Z,22.30
2023-04-17T02:11:29.478Z,24.88
2023-04-17T02:13:58.008Z,24.42
2023-04-17T02:16:28.855Z,24.05
2023-04-17T02:18:57.521Z,24.40
2023-04-17T02:21:26.944Z,26.30
2023-04-17T02:23:55.520Z,23.15
2023-04-17T02:26:24.175Z,24.65
2023-04-17T02:28:52.820Z,24.73
2023-04-17T02:31:21.428Z,24.98
2023-04-17T02:33:51.473Z,26.98
2023-04-17T02:36:19.989Z,28.02
2023-04-17T02:38:48.616Z,25.23
2023-04-17T02:41:17.283Z,25.85
2023-04-17T02:43:46.451Z,32.58
2023-04-17T02:46:15.066Z,27.00
2023-04-17T02:48:43.729Z,27.45
2023-04-17T02:51:13.827Z,26.83
2023-04-17T02:53:42.442Z,27.60
2023-04-17T02:56:11.197Z,30.17
2023-04-17T02:58:39.802Z,28.17
2023-04-17T03:01:08.508Z,29.13
2023-04-17T03:03:42.690Z,27.75
2023-04-17T03:06:11.570Z,28.05
2023-04-17T03:08:43.712Z,25.50
2023-04-17T03:11:12.266Z,26.30
2023-04-17T03:13:40.844Z,22.42
2023-04-17T03:16:09.593Z,22.35
2023-04-17T03:18:41.146Z,22.75
2023-04-17T03:21:09.925Z,24.15
2023-04-17T03:23:38.631Z,26.25
2023-04-17T03:26:08.724Z,26.65
2023-04-17T03:28:37.563Z,26.88
2023-04-17T03:31:06.572Z,24.80
2023-04-17T03:33:35.234Z,28.27
2023-04-17T03:36:04.032Z,29.13
2023-04-17T03:38:32.609Z,28.48
2023-04-17T03:41:01.290Z,27.98
2023-04-17T03:43:31.427Z,26.35
2023-04-17T03:46:00.176Z,30.70
2023-04-17T03:48:28.893Z,30.73
2023-04-17T03:50:57.534Z,30.30
2023-04-17T03:53:26.187Z,31.48
2023-04-17T03:55:57.916Z,25.75
2023-04-17T03:58:26.627Z,31.52
2023-04-17T04:00:58.986Z,28.48
2023-04-17T04:03:27.937Z,30.92
2023-04-17T04:05:56.814Z,28.85
2023-04-17T04:08:25.537Z,29.45
2023-04-17T04:10:54.110Z,28.48
2023-04-17T04:13:22.715Z,31.10
2023-04-17T04:15:51.441Z,28.63
2023-04-17T04:18:21.429Z,29.30
2023-04-17T04:20:50.460Z,28.55
2023-04-17T04:23:21.053Z,30.67
2023-04-17T04:25:50.645Z,30.38
2023-04-17T04:28:19.388Z,27.02
2023-04-17T04:30:50.629Z,29.90
2023-04-17T04:33:21.189Z,30.35
2023-04-17T04:35:51.419Z,30.98
2023-04-17T04:38:20.108Z,27.40
2023-04-17T04:40:50.170Z,28.55
2023-04-17T04:43:21.647Z,28.25
2023-04-17T04:45:50.942Z,31.35
2023-04-17T04:48:21.050Z,32.38
2023-04-17T04:50:49.641Z,31.00
2023-04-17T04:53:18.274Z,30.40
2023-04-17T04:55:46.959Z,32.63
2023-04-17T04:58:15.518Z,35.03
2023-04-17T05:00:44.326Z,36.65
2023-04-17T05:03:13.337Z,37.72
2023-04-17T05:05:44.453Z,36.70
2023-04-17T05:08:13.956Z,33.47
2023-04-17T05:10:42.636Z,33.63
2023-04-17T05:13:13.501Z,36.58
2023-04-17T05:15:42.506Z,35.30
2023-04-17T05:18:11.164Z,36.63
2023-04-17T05:20:39.783Z,37.80
2023-04-17T05:23:09.763Z,39.58
2023-04-17T05:25:38.314Z,39.97
2023-04-17T05:28:07.292Z,39.30
2023-04-17T05:30:36.189Z,41.53
2023-04-17T05:33:04.793Z,50.40
2023-04-17T05:35:33.481Z,40.42
2023-04-17T05:38:02.042Z,39.58
2023-04-17T05:40:31.975Z,38.13
2023-04-17T05:43:07.224Z,38.15
2023-04-17T05:45:35.824Z,37.67
2023-04-17T05:48:04.787Z,36.70
2023-04-17T05:50:33.451Z,38.60
2023-04-17T05:53:02.306Z,37.33
2023-04-17T05:55:32.368Z,33.95
2023-04-17T05:58:10.476Z,34.03
2023-04-17T06:00:45.390Z,30.63
2023-04-17T06:03:18.271Z,31.52
2023-04-17T06:05:50.570Z,31.65
2023-04-17T06:08:19.371Z,31.20
2023-04-17T06:10:50.233Z,32.72
2023-04-17T06:13:18.816Z,34.13
2023-04-17T06:15:47.431Z,34.92
2023-04-17T06:18:17.689Z,31.27
2023-04-17T06:20:46.620Z,31.38
2023-04-17T06:23:15.526Z,31.80
2023-04-17T06:25:44.449Z,29.15
2023-04-17T06:28:14.356Z,28.45
2023-04-17T06:30:43.070Z,28.25
2023-04-17T06:33:11.646Z,26.42
2023-04-17T06:35:40.926Z,28.10
2023-04-17T06:38:09.946Z,19.20
2023-04-17T06:40:38.546Z,31.25
2023-04-17T06:43:07.129Z,22.73
2023-04-17T06:45:42.350Z,25.83
2023-04-17T06:48:10.979Z,30.25
2023-04-17T06:50:39.602Z,31.30
2023-04-17T06:53:08.290Z,28.75
2023-04-17T06:55:39.859Z,30.00
2023-04-17T06:58:09.473Z,26.80
2023-04-17T07:00:39.375Z,25.38
2023-04-17T07:03:08.236Z,27.75
2023-04-17T07:05:36.932Z,30.05
2023-04-17T07:08:05.641Z,27.20
2023-04-17T07:10:34.255Z,26.85
2023-04-17T07:13:03.521Z,25.88
2023-04-17T07:15:32.209Z,24.52
2023-04-17T07:18:02.183Z,23.45
2023-04-17T07:20:30.966Z,17.95
2023-04-17T07:22:59.531Z,19.77
2023-04-17T07:25:28.160Z,19.65
2023-04-17T07:27:56.989Z,18.67
2023-04-17T07:30:25.795Z,17.73
2023-04-17T07:32:54.561Z,19.55
2023-04-17T07:35:24.776Z,19.33
2023-04-17T07:37:53.621Z,22.05
2023-04-17T07:40:22.326Z,24.40
2023-04-17T07:42:50.969Z,20.92
2023-04-17T07:45:20.000Z,21.65
2023-04-17T07:47:48.729Z,13.10
2023-04-17T07:50:17.364Z,19.27
2023-04-17T07:52:47.383Z,18.98
2023-04-17T07:55:16.810Z,20.30
2023-04-17T07:57:46.604Z,20.13
2023-04-17T08:00:15.632Z,20.77
2023-04-17T08:02:44.535Z,20.55
2023-04-17T08:05:13.280Z,22.30
2023-04-17T08:07:42.644Z,20.77
2023-04-17T08:10:12.932Z,21.33
2023-04-17T08:12:41.692Z,20.40
2023-04-17T08:15:10.759Z,20.65
2023-04-17T08:17:39.452Z,24.13
2023-04-17T08:20:11.352Z,20.42
2023-04-17T08:22:42.972Z,23.88
2023-04-17T08:25:13.837Z,25.55
2023-04-17T08:27:43.064Z,22.40
2023-04-17T08:30:15.071Z,20.70
2023-04-17T08:32:47.037Z,16.38
2023-04-17T08:35:17.322Z,15.70
2023-04-17T08:37:47.623Z,17.15
2023-04-17T08:40:18.885Z,16.45
2023-04-17T08:42:49.567Z,14.75
2023-04-17T08:45:19.991Z,16.25
2023-04-17T08:47:48.717Z,15.13
2023-04-17T08:50:18.147Z,15.73
2023-04-17T08:52:49.007Z,15.70
2023-04-17T08:55:19.670Z,18.50
2023-04-17T08:58:03.853Z,15.27
2023-04-17T09:00:33.361Z,17.85
2023-04-17T09:03:04.001Z,18.23
2023-04-17T09:05:34.271Z,16.48
2023-04-17T09:08:11.394Z,19.70
2023-04-17T09:10:42.165Z,18.05
2023-04-17T09:13:12.405Z,20.35
2023-04-17T09:15:40.996Z,20.02
2023-04-17T09:18:23.200Z,15.35
2023-04-17T09:20:52.357Z,19.42
2023-04-17T09:23:21.503Z,21.52
2023-04-17T09:26:06.791Z,18.77
2023-04-17T09:28:36.992Z,18.77
2023-04-17T09:31:06.617Z,20.65
2023-04-17T09:33:38.071Z,19.42
2023-04-17T09:36:22.616Z,19.02
2023-04-17T09:38:51.648Z,18.88
2023-04-17T09:41:29.058Z,18.58
2023-04-17T09:44:01.080Z,19.83
2023-04-17T09:46:34.014Z,19.13
2023-04-17T09:49:06.958Z,19.08
2023-04-17T09:51:36.450Z,19.23
2023-04-17T09:54:07.037Z,18.88
2023-04-17T09:56:38.020Z,17.50
2023-04-17T09:59:07.623Z,18.08
2023-04-17T10:01:37.051Z,21.58
2023-04-17T10:04:09.921Z,17.40
2023-04-17T10:06:39.102Z,19.15
2023-04-17T10:09:08.139Z,20.75
2023-04-17T10:11:39.334Z,21.35
2023-04-17T10:14:12.360Z,21.17
2023-04-17T10:16:42.729Z,20.40
2023-04-17T10:19:29.629Z,21.20
2023-04-17T10:22:13.052Z,19.55
2023-04-17T10:24:41.819Z,15.98
2023-04-17T10:27:25.696Z,21.33
2023-04-17T10:29:58.476Z,18.40
2023-04-17T10:32:28.735Z,20.88
2023-04-17T10:34:58.505Z,21.00
2023-04-17T10:37:42.197Z,19.92
2023-04-17T10:40:14.110Z,21.73
2023-04-17T10:42:43.056Z,20.55
2023-04-17T10:45:21.350Z,19.58
2023-04-17T10:48:00.112Z,19.85
2023-04-17T10:50:29.882Z,20.17
2023-04-17T10:52:58.556Z,21.55
2023-04-17T10:55:28.478Z,20.05
2023-04-17T10:58:01.336Z,19.25
2023-04-17T11:00:34.115Z,18.92
2023-04-17T11:03:03.341Z,20.77
2023-04-17T11:05:32.437Z,21.33
2023-04-17T11:08:01.254Z,19.33
2023-04-17T11:10:29.961Z,23.02
2023-04-17T11:12:58.663Z,19.33
2023-04-17T11:15:28.234Z,19.30
2023-04-17T11:17:58.366Z,20.02
2023-04-17T11:20:28.297Z,18.33
2023-04-17T11:22:58.094Z,18.52
2023-04-17T11:25:27.575Z,19.98
2023-04-17T11:27:59.583Z,18.52
2023-04-17T11:30:32.459Z,20.17
2023-04-17T11:33:03.033Z,13.13
2023-04-17T11:35:32.601Z,13.63
2023-04-17T11:38:12.597Z,19.45
2023-04-17T11:40:47.997Z,17.30
2023-04-17T11:43:19.288Z,17.48
2023-04-17T11:45:48.790Z,17.30
2023-04-17T11:48:22.818Z,18.67
2023-04-17T11:50:54.967Z,16.83
2023-04-17T11:53:23.578Z,17.75
2023-04-17T11:56:13.118Z,17.15
2023-04-17T11:58:51.841Z,17.08
2023-04-17T12:01:21.366Z,17.25
2023-04-17T12:03:54.245Z,15.50
2023-04-17T12:06:26.121Z,18.13
2023-04-17T12:08:56.241Z,17.08
2023-04-17T12:11:26.629Z,17.23
2023-04-17T12:13:55.755Z,16.05
2023-04-17T12:16:25.837Z,17.08
2023-04-17T12:18:55.945Z,16.25
2023-04-17T12:21:24.895Z,16.65
2023-04-17T12:23:53.411Z,17.15
2023-04-17T12:26:21.985Z,15.73
2023-04-17T12:28:50.908Z,20.45
2023-04-17T12:31:19.258Z,17.52
2023-04-17T12:33:47.896Z,16.17
2023-04-17T12:36:17.636Z,17.20
2023-04-17T12:38:46.509Z,15.80
2023-04-17T12:41:14.811Z,17.17
2023-04-17T12:43:43.125Z,13.57
2023-04-17T12:46:11.937Z,16.70
2023-04-17T12:48:40.352Z,15.20
2023-04-17T12:51:08.751Z,15.52
2023-04-17T12:53:38.520Z,16.27
2023-04-17T12:56:07.991Z,17.67
2023-04-17T12:58:36.294Z,14.10
2023-04-17T13:01:04.727Z,18.48
2023-04-17T13:03:33.242Z,16.38
2023-04-17T13:06:01.675Z,14.38
2023-04-17T13:08:31.093Z,11.45
2023-04-17T13:11:03.800Z,16.77
2023-04-17T13:13:32.286Z,18.23
2023-04-17T13:16:00.999Z,14.38
2023-04-17T13:53:21.538Z,17.52
2023-04-17T13:55:50.940Z,16.15
2023-04-17T13:58:19.454Z,16.73
2023-04-17T14:00:48.256Z,15.63
2023-04-17T14:03:16.796Z,17.58
2023-04-17T14:05:45.594Z,16.38
2023-04-17T14:08:13.952Z,17.33
2023-04-17T14:10:46.236Z,18.42
2023-04-17T14:13:14.616Z,18.25
2023-04-17T14:15:47.622Z,17.40
2023-04-17T14:18:16.045Z,14.32
2023-04-17T14:20:44.328Z,17.30
2023-04-17T14:23:12.788Z,17.02
2023-04-17T14:25:47.785Z,13.93
2023-04-17T14:28:16.603Z,14.95
2023-04-17T14:30:45.038Z,15.60
2023-04-17T14:33:15.483Z,17.13
2023-04-17T14:35:43.899Z,17.13
2023-04-17T14:38:12.327Z,14.70
2023-04-17T14:40:40.735Z,15.35
2023-04-17T14:43:10.599Z,17.00
2023-04-17T14:45:39.049Z,14.20
2023-04-17T14:48:07.707Z,15.57
2023-04-17T14:50:36.192Z,16.15
2023-04-17T14:53:04.783Z,15.93
2023-04-17T14:55:33.522Z,18.65
2023-04-17T14:58:01.904Z,16.23
2023-04-17T15:00:34.700Z,16.13
2023-04-17T15:03:03.362Z,15.93
2023-04-17T15:05:31.827Z,14.15
2023-04-17T15:08:00.219Z,12.88
2023-04-17T15:10:40.574Z,13.70
2023-04-17T15:13:16.741Z,13.93
2023-04-17T15:15:46.386Z,12.80
2023-04-17T15:18:14.786Z,11.55
2023-04-17T15:20:43.182Z,10.43
2023-04-17T15:23:13.712Z,12.40
2023-04-17T15:25:42.574Z,13.70
2023-04-17T15:28:12.431Z,10.70
2023-04-17T15:30:43.254Z,13.43
2023-04-17T15:33:13.235Z,10.23
2023-04-17T15:35:41.866Z,13.57
2023-04-17T15:38:10.323Z,13.82
2023-04-17T15:40:38.729Z,13.18
2023-04-17T15:43:07.105Z,12.23
2023-04-17T15:45:35.429Z,13.77
2023-04-17T15:48:04.042Z,11.77
2023-04-17T15:50:34.199Z,12.90
2023-04-17T15:53:02.924Z,11.50
2023-04-17T15:55:33.171Z,11.60
2023-04-17T15:58:01.506Z,12.13
2023-04-17T16:00:29.926Z,13.15
2023-04-17T16:02:58.505Z,12.20
2023-04-17T16:05:28.005Z,12.77
2023-04-17T16:07:57.717Z,11.52
2023-04-17T16:10:26.417Z,13.10
2023-04-17T16:12:54.853Z,13.68
2023-04-17T16:15:25.543Z,18.08
2023-04-17T16:17:53.888Z,20.48
2023-04-17T16:20:22.367Z,22.52
2023-04-17T16:22:50.780Z,23.67
2023-04-17T16:25:20.989Z,21.50
2023-04-17T16:27:49.614Z,17.45
2023-04-17T16:30:18.582Z,22.08
2023-04-17T16:32:48.825Z,18.83
2023-04-17T16:35:17.357Z,23.30
2023-04-17T16:37:46.588Z,19.35
2023-04-17T16:40:15.440Z,20.35
2023-04-17T16:42:45.475Z,21.90
2023-04-17T16:45:13.967Z,15.73
2023-04-17T16:47:42.340Z,19.73
2023-04-17T16:50:12.045Z,19.90
2023-04-17T16:52:40.798Z,21.13
2023-04-17T16:55:10.173Z,20.02
2023-04-17T16:57:40.801Z,19.95
2023-04-17T17:00:12.243Z,20.13
2023-04-17T17:02:40.975Z,21.48
2023-04-17T17:05:10.759Z,18.98
2023-04-17T17:07:39.156Z,20.63
2023-04-17T17:10:09.037Z,20.38
2023-04-17T17:12:37.423Z,21.10
2023-04-17T17:15:07.208Z,18.63
2023-04-17T17:17:37.165Z,18.75
2023-04-17T17:20:06.235Z,20.00
2023-04-17T17:22:34.896Z,20.08
2023-04-17T17:25:03.498Z,19.35
2023-04-17T17:27:32.086Z,18.17
2023-04-17T17:30:00.911Z,20.10
2023-04-17T17:32:29.595Z,15.55
2023-04-17T17:34:59.560Z,20.10
2023-04-17T17:37:28.199Z,14.40
2023-04-17T17:39:56.528Z,18.98
2023-04-17T17:42:25.019Z,20.95
2023-04-17T17:44:53.495Z,21.10
2023-04-17T17:47:21.836Z,18.50
2023-04-17T17:49:50.523Z,20.60
2023-04-17T17:52:20.266Z,20.23
2023-04-17T17:54:48.682Z,19.20
2023-04-17T17:57:17.097Z,16.80
2023-04-17T17:59:46.058Z,17.27
2023-04-17T18:02:14.648Z,19.40
2023-04-17T18:04:43.139Z,21.85
2023-04-17T18:07:11.974Z,21.02
2023-04-17T18:09:42.522Z,20.35
2023-04-17T18:12:11.157Z,18.80
2023-04-17T18:14:39.729Z,22.42
2023-04-17T18:17:08.339Z,18.67
2023-04-17T18:19:40.837Z,21.25
2023-04-17T18:22:09.481Z,22.05
2023-04-17T18:24:37.904Z,22.65
2023-04-17T18:27:07.665Z,21.65
2023-04-17T18:29:36.319Z,23.20
2023-04-17T18:32:04.955Z,20.55
2023-04-17T18:34:33.520Z,23.67
2023-04-17T18:37:01.863Z,23.92
2023-04-17T18:39:30.489Z,23.00
2023-04-17T18:41:59.715Z,19.75
2023-04-17T18:44:29.735Z,22.95
2023-04-17T18:46:58.411Z,22.77
2023-04-17T18:49:27.612Z,25.60
2023-04-17T18:51:56.570Z,22.50
2023-04-17T18:54:25.193Z,23.67
2023-04-17T18:56:53.824Z,19.80
2023-04-17T18:59:22.484Z,22.67
2023-04-17T19:01:52.491Z,23.95
2023-04-17T19:04:21.797Z,25.42
2023-04-17T19:06:50.577Z,24.25
2023-04-17T19:09:19.170Z,24.08
2023-04-17T19:11:47.727Z,24.73
2023-04-17T19:14:16.337Z,25.20
2023-04-17T19:16:47.152Z,24.60
2023-04-17T19:19:17.497Z,26.08
2023-04-17T19:21:46.088Z,24.02
2023-04-17T19:24:14.723Z,24.00
2023-04-17T19:26:43.339Z,21.25
2023-04-17T19:29:12.122Z,16.10
2023-04-17T19:31:40.982Z,26.55
2023-04-17T19:34:10.473Z,26.95
2023-04-17T19:36:40.482Z,29.23
2023-04-17T19:39:09.085Z,19.10
2023-04-17T19:41:37.742Z,23.45
2023-04-17T19:44:06.552Z,20.80
2023-04-17T19:46:35.121Z,27.67
2023-04-17T19:49:03.691Z,27.75
2023-04-17T19:51:32.575Z,27.08
2023-04-17T19:54:02.576Z,27.52
2023-04-17T19:56:33.518Z,28.17
2023-04-17T19:59:03.308Z,26.73
2023-04-17T20:01:32.711Z,27.23
2023-04-17T20:04:01.389Z,30.50
2023-04-17T20:06:30.025Z,29.05
2023-04-17T20:08:59.252Z,30.60
2023-04-17T20:11:28.991Z,31.75
2023-04-17T20:13:57.639Z,30.73
2023-04-17T20:16:26.129Z,33.58
2023-04-17T20:18:56.611Z,29.95
2023-04-17T20:21:25.271Z,31.10
2023-04-17T20:23:55.118Z,33.85
2023-04-17T20:26:23.710Z,29.52
2023-04-17T20:28:54.832Z,33.65
2023-04-17T20:31:23.573Z,31.42
2023-04-17T20:33:51.996Z,30.45
2023-04-17T20:36:20.328Z,33.53
2023-04-17T20:38:48.994Z,29.40
2023-04-17T20:41:17.360Z,34.33
2023-04-17T20:43:46.125Z,34.20
2023-04-17T20:46:16.136Z,34.78
2023-04-17T20:48:44.775Z,32.20
2023-04-17T20:51:13.400Z,34.53
2023-04-17T20:53:41.991Z,36.50
2023-04-17T20:56:10.567Z,34.50
2023-04-17T20:58:39.180Z,33.70
2023-04-17T21:01:08.121Z,35.92
2023-04-17T21:03:38.260Z,35.00
2023-04-17T21:06:09.157Z,36.08
2023-04-17T21:08:37.770Z,37.55
2023-04-17T21:11:06.930Z,37.08
2023-04-17T21:13:35.526Z,37.00
2023-04-17T21:16:04.233Z,39.42
2023-04-17T21:18:32.808Z,37.85
2023-04-17T21:21:02.734Z,39.40
2023-04-17T21:23:31.611Z,41.22
2023-04-17T21:26:00.205Z,40.60
2023-04-17T21:28:28.847Z,39.35
2023-04-17T21:30:57.448Z,40.70
2023-04-17T21:33:26.114Z,41.97
2023-04-17T21:35:57.899Z,44.47
2023-04-17T21:38:27.824Z,49.10
2023-04-17T21:40:56.705Z,46.40
2023-04-17T21:43:25.161Z,41.75
2023-04-17T21:45:56.977Z,38.85
2023-04-17T21:48:25.498Z,44.55
2023-04-17T21:50:56.474Z,40.58
2023-04-17T21:53:24.843Z,44.53
2023-04-17T21:55:56.773Z,42.50
2023-04-17T21:58:27.808Z,45.50
2023-04-17T22:00:56.691Z,42.47
2023-04-17T22:03:25.307Z,41.05
2023-04-17T22:05:56.412Z,42.97
2023-04-17T22:08:25.406Z,41.78
2023-04-17T22:10:54.062Z,44.50
2023-04-17T22:13:24.061Z,45.70
2023-04-17T22:15:53.048Z,39.75
2023-04-17T22:18:22.682Z,47.15
2023-04-17T22:20:51.247Z,36.53
2023-04-17T22:23:19.967Z,43.83
2023-04-17T22:25:48.539Z,37.30
2023-04-17T22:28:17.169Z,49.63
2023-04-17T22:30:47.217Z,41.42
2023-04-17T22:33:15.862Z,46.88
2023-04-17T22:35:44.497Z,39.75
2023-04-17T22:38:13.180Z,41.38
2023-04-17T22:40:42.684Z,46.55
2023-04-17T22:43:11.594Z,46.20
2023-04-17T22:45:40.258Z,46.30
2023-04-17T22:48:10.253Z,45.75
2023-04-17T22:50:39.374Z,41.88
2023-04-17T22:53:08.018Z,45.55
2023-04-17T22:55:36.785Z,46.58
2023-04-17T22:58:27.377Z,46.35
2023-04-17T23:00:58.256Z,59.90
2023-04-17T23:03:28.132Z,62.42
2023-04-17T23:05:56.939Z,57.20
2023-04-17T23:08:25.595Z,61.15
2023-04-17T23:10:59.834Z,59.95
2023-04-17T23:13:31.612Z,62.75
2023-04-17T23:16:00.057Z,64.57
2023-04-17T23:18:30.051Z,63.85
2023-04-17T23:20:58.542Z,63.35
2023-04-17T23:23:26.883Z,62.38
2023-04-17T23:25:57.509Z,61.95
2023-04-17T23:28:30.376Z,64.45
2023-04-17T23:30:59.009Z,65.22
2023-04-17T23:33:27.492Z,65.38
2023-04-17T23:35:57.145Z,64.32
2023-04-17T23:38:25.639Z,64.65
2023-04-17T23:40:54.027Z,65.68
2023-04-17T23:43:22.494Z,62.13
2023-04-17T23:45:50.916Z,62.25
2023-04-17T23:48:19.760Z,63.17
2023-04-17T23:50:48.520Z,62.65
2023-04-17T23:53:18.225Z,63.17
2023-04-17T23:55:46.848Z,66.43
2023-04-17T23:58:15.593Z,64.93
